createdAt,value
2023-05-09T00:01:10.730Z,8.60
2023-05-09T00:03:37.802Z,8.60
2023-05-09T00:06:04.966Z,8.60
2023-05-09T00:08:31.730Z,8.50
2023-05-09T00:10:58.516Z,8.50
2023-05-09T00:13:25.855Z,8.50
2023-05-09T00:15:54.262Z,8.50
2023-05-09T00:18:22.152Z,8.60
2023-05-09T00:20:49.490Z,8.60
2023-05-09T00:23:16.809Z,8.60
2023-05-09T00:25:43.701Z,8.70
2023-05-09T00:28:10.522Z,8.60
2023-05-09T00:30:38.489Z,8.60
2023-05-09T00:33:05.483Z,8.60
2023-05-09T00:35:32.485Z,8.50
2023-05-09T00:37:59.547Z,8.50
2023-05-09T00:40:26.437Z,8.40
2023-05-09T00:42:53.382Z,8.40
2023-05-09T00:45:20.290Z,8.40
2023-05-09T00:47:47.232Z,8.40
2023-05-09T00:50:14.881Z,8.30
2023-05-09T00:52:41.992Z,8.30
2023-05-09T00:55:09.015Z,8.30
2023-05-09T00:57:36.300Z,8.30
2023-05-09T01:00:04.748Z,8.20
2023-05-09T01:02:32.335Z,8.20
2023-05-09T01:04:59.217Z,8.20
2023-05-09T01:07:49.243Z,8.10
2023-05-09T01:10:19.282Z,8.10
2023-05-09T01:12:49.211Z,8.10
2023-05-09T01:15:24.201Z,8.10
2023-05-09T01:17:58.202Z,8.10
2023-05-09T01:20:36.522Z,8.10
2023-05-09T01:23:06.196Z,8.00
2023-05-09T01:25:33.002Z,7.90
2023-05-09T01:28:05.625Z,7.90
2023-05-09T01:30:34.621Z,7.90
2023-05-09T01:33:05.642Z,7.90
2023-05-09T01:35:33.608Z,7.80
2023-05-09T01:38:02.401Z,7.70
2023-05-09T01:40:31.277Z,7.60
2023-05-09T01:42:59.859Z,7.50
2023-05-09T01:45:27.171Z,7.40
2023-05-09T01:47:54.460Z,7.30
2023-05-09T01:50:22.223Z,7.20
2023-05-09T01:52:49.835Z,7.20
2023-05-09T01:55:17.728Z,7.10
2023-05-09T01:57:45.437Z,7.00
2023-05-09T02:00:13.744Z,6.90
2023-05-09T02:02:41.732Z,6.90
2023-05-09T02:05:10.325Z,6.90
2023-05-09T02:07:37.887Z,6.90
2023-05-09T02:10:05.527Z,6.80
2023-05-09T02:12:32.295Z,6.70
2023-05-09T02:14:59.248Z,6.60
2023-05-09T02:17:26.225Z,6.60
2023-05-09T02:19:53.031Z,6.50
2023-05-09T02:22:19.800Z,6.40
2023-05-09T02:24:46.764Z,6.30
2023-05-09T02:27:14.528Z,6.30
2023-05-09T02:29:46.403Z,6.30
2023-05-09T02:32:20.878Z,6.20
2023-05-09T02:34:49.186Z,6.20
2023-05-09T02:37:16.377Z,6.20
2023-05-09T02:39:43.263Z,6.20
2023-05-09T02:42:10.902Z,6.10
2023-05-09T02:44:38.936Z,6.10
2023-05-09T02:47:07.679Z,6.10
2023-05-09T02:49:34.977Z,6.10
2023-05-09T02:52:06.320Z,6.10
2023-05-09T02:54:33.248Z,6.00
2023-05-09T02:57:00.139Z,5.90
2023-05-09T02:59:27.466Z,5.90
2023-05-09T03:01:54.480Z,5.90
2023-05-09T03:04:22.232Z,5.90
2023-05-09T03:06:49.575Z,6.00
2023-05-09T03:09:16.755Z,6.10
2023-05-09T03:11:43.759Z,6.10
2023-05-09T03:14:11.430Z,6.10
2023-05-09T03:16:38.231Z,6.00
2023-05-09T03:19:10.610Z,6.00
2023-05-09T03:21:37.477Z,5.90
2023-05-09T03:24:05.104Z,5.90
2023-05-09T03:26:31.952Z,6.00
2023-05-09T03:28:59.075Z,6.00
2023-05-09T03:31:26.217Z,6.00
2023-05-09T03:33:53.098Z,6.00
2023-05-09T03:36:20.251Z,6.00
2023-05-09T03:38:47.156Z,6.00
2023-05-09T03:41:16.283Z,6.10
2023-05-09T03:43:45.454Z,6.00
2023-05-09T03:46:12.857Z,6.10
2023-05-09T03:48:41.126Z,6.10
2023-05-09T03:51:08.067Z,6.10
2023-05-09T03:53:38.219Z,6.10
2023-05-09T03:56:06.757Z,6.20
2023-05-09T03:58:39.968Z,6.20
2023-05-09T04:01:06.956Z,6.20
2023-05-09T04:03:34.717Z,6.30
2023-05-09T04:06:02.379Z,6.30
2023-05-09T04:08:33.840Z,6.40
2023-05-09T04:11:02.731Z,6.40
2023-05-09T04:13:30.966Z,6.40
2023-05-09T04:16:01.666Z,6.40
2023-05-09T04:18:31.354Z,6.50
2023-05-09T04:20:58.096Z,6.60
2023-05-09T04:23:25.048Z,6.70
2023-05-09T04:25:54.360Z,6.80
2023-05-09T04:28:21.574Z,6.90
2023-05-09T04:30:49.196Z,7.00
2023-05-09T04:33:17.041Z,7.20
2023-05-09T04:35:45.030Z,7.30
2023-05-09T04:38:12.630Z,7.60
2023-05-09T04:40:39.598Z,7.80
2023-05-09T04:43:07.085Z,8.00
2023-05-09T04:45:34.472Z,8.10
2023-05-09T04:48:01.852Z,8.10
2023-05-09T04:50:30.381Z,8.10
2023-05-09T04:52:57.118Z,8.10
2023-05-09T04:55:23.988Z,8.10
2023-05-09T04:57:51.572Z,8.10
2023-05-09T05:00:19.702Z,8.10
2023-05-09T05:02:48.680Z,8.00
2023-05-09T05:05:15.618Z,7.90
2023-05-09T05:07:43.734Z,8.00
2023-05-09T05:10:13.701Z,8.00
2023-05-09T05:12:44.569Z,8.00
2023-05-09T05:15:13.792Z,8.00
2023-05-09T05:17:42.664Z,8.00
2023-05-09T05:20:10.756Z,8.10
2023-05-09T05:22:42.382Z,8.20
2023-05-09T05:25:09.499Z,8.30
2023-05-09T05:27:37.839Z,8.40
2023-05-09T05:30:05.557Z,8.50
2023-05-09T05:32:32.523Z,8.60
2023-05-09T05:34:59.516Z,8.60
2023-05-09T05:37:26.470Z,8.70
2023-05-09T05:39:53.349Z,8.70
2023-05-09T05:42:20.506Z,8.70
2023-05-09T05:44:47.452Z,8.80
2023-05-09T05:47:14.660Z,8.70
2023-05-09T05:49:41.871Z,8.70
2023-05-09T05:52:09.479Z,8.70
2023-05-09T05:54:36.864Z,8.80
2023-05-09T05:57:03.861Z,8.80
2023-05-09T05:59:30.799Z,8.80
2023-05-09T06:01:57.752Z,8.70
2023-05-09T06:04:25.137Z,8.70
2023-05-09T06:06:52.566Z,8.60
2023-05-09T06:09:19.385Z,8.60
2023-05-09T06:11:46.484Z,8.60
2023-05-09T06:14:13.837Z,8.70
2023-05-09T06:16:40.652Z,8.70
2023-05-09T06:19:08.255Z,8.80
2023-05-09T06:21:36.015Z,8.80
2023-05-09T06:24:11.963Z,8.90
2023-05-09T06:26:41.386Z,8.90
2023-05-09T06:29:08.367Z,9.00
2023-05-09T06:31:39.111Z,9.10
2023-05-09T06:34:06.435Z,9.20
2023-05-09T06:36:33.634Z,9.30
2023-05-09T06:39:00.784Z,9.30
2023-05-09T06:41:27.677Z,9.40
2023-05-09T06:43:54.692Z,9.40
2023-05-09T06:46:21.679Z,9.40
2023-05-09T06:48:48.673Z,9.50
2023-05-09T06:51:16.432Z,9.60
2023-05-09T06:53:43.315Z,9.60
2023-05-09T06:56:10.224Z,9.60
2023-05-09T06:58:37.038Z,9.60
2023-05-09T07:01:04.604Z,9.70
2023-05-09T07:03:31.572Z,9.80
2023-05-09T07:05:59.850Z,9.80
2023-05-09T07:08:27.169Z,9.90
2023-05-09T07:10:54.544Z,9.90
2023-05-09T07:13:21.478Z,10.00
2023-05-09T07:15:48.512Z,10.00
2023-05-09T07:18:15.446Z,10.10
2023-05-09T07:20:42.205Z,10.00
2023-05-09T07:23:08.941Z,10.00
2023-05-09T07:25:35.784Z,10.00
2023-05-09T07:28:02.819Z,9.90
2023-05-09T07:30:29.616Z,9.90
2023-05-09T07:32:56.645Z,9.90
2023-05-09T07:35:23.472Z,9.90
2023-05-09T07:37:50.309Z,9.90
2023-05-09T07:40:17.386Z,10.00
2023-05-09T07:42:50.020Z,10.10
2023-05-09T07:45:19.384Z,10.10
2023-05-09T07:47:47.409Z,10.20
2023-05-09T07:50:14.426Z,10.30
2023-05-09T07:52:41.162Z,10.40
2023-05-09T07:55:08.231Z,10.40
2023-05-09T07:57:35.047Z,10.40
2023-05-09T08:00:01.887Z,10.40
2023-05-09T08:02:28.904Z,10.40
2023-05-09T08:04:58.301Z,10.50
2023-05-09T08:07:25.103Z,10.50
2023-05-09T08:09:52.059Z,10.50
2023-05-09T08:12:18.823Z,10.50
2023-05-09T08:14:45.958Z,10.50
2023-05-09T08:17:12.885Z,10.50
2023-05-09T08:19:39.730Z,10.50
2023-05-09T08:22:06.544Z,10.50
2023-05-09T08:24:33.436Z,10.50
2023-05-09T08:27:00.782Z,10.40
2023-05-09T08:29:29.070Z,10.40
2023-05-09T08:31:56.162Z,10.40
2023-05-09T08:34:23.030Z,10.40
2023-05-09T08:36:49.842Z,10.40
2023-05-09T08:39:16.596Z,10.40
2023-05-09T08:41:43.654Z,10.40
2023-05-09T08:44:10.999Z,10.40
2023-05-09T08:46:39.268Z,10.50
2023-05-09T08:49:07.340Z,10.60
2023-05-09T08:51:35.222Z,10.70
2023-05-09T08:54:02.418Z,10.80
2023-05-09T08:56:32.582Z,11.00
2023-05-09T08:58:59.375Z,11.00
2023-05-09T09:01:29.224Z,11.00
2023-05-09T09:03:56.401Z,11.00
2023-05-09T09:06:23.515Z,11.00
2023-05-09T09:08:50.623Z,10.90
2023-05-09T09:11:17.637Z,10.90
2023-05-09T09:13:45.385Z,11.00
2023-05-09T09:16:17.627Z,11.00
2023-05-09T09:18:44.776Z,11.00
2023-05-09T09:21:12.935Z,11.00
2023-05-09T09:23:43.006Z,11.20
2023-05-09T09:26:10.047Z,11.30
2023-05-09T09:28:37.005Z,11.40
2023-05-09T09:31:18.862Z,11.60
2023-05-09T09:33:45.608Z,11.60
2023-05-09T09:36:12.390Z,11.70
2023-05-09T09:38:43.944Z,11.70
2023-05-09T09:41:12.515Z,11.70
2023-05-09T09:43:39.513Z,11.80
2023-05-09T09:46:06.691Z,11.80
2023-05-09T09:48:34.712Z,11.90
2023-05-09T09:51:11.355Z,12.00
2023-05-09T09:53:42.000Z,12.10
2023-05-09T09:56:09.421Z,12.20
2023-05-09T09:58:36.480Z,12.30
2023-05-09T10:01:10.120Z,12.50
2023-05-09T10:03:43.206Z,12.70
2023-05-09T10:06:13.628Z,12.90
2023-05-09T10:08:40.861Z,13.00
2023-05-09T10:11:08.963Z,13.20
2023-05-09T10:13:38.890Z,13.40
2023-05-09T10:16:06.267Z,13.50
2023-05-09T10:18:33.881Z,13.50
2023-05-09T10:21:05.252Z,13.50
2023-05-09T10:23:34.152Z,13.40
2023-05-09T10:26:07.142Z,13.30
2023-05-09T10:28:35.969Z,13.40
2023-05-09T10:31:14.907Z,13.60
2023-05-09T10:33:48.575Z,13.70
2023-05-09T10:36:16.851Z,13.80
2023-05-09T10:38:44.017Z,13.80
2023-05-09T10:41:11.397Z,13.80
2023-05-09T10:43:38.300Z,14.00
2023-05-09T10:46:05.578Z,14.10
2023-05-09T10:48:33.058Z,14.10
2023-05-09T10:51:01.347Z,14.20
2023-05-09T10:53:40.866Z,14.30
2023-05-09T10:56:07.691Z,14.50
2023-05-09T10:58:36.392Z,14.70
2023-05-09T11:01:04.558Z,14.80
2023-05-09T11:03:50.341Z,15.10
2023-05-09T11:06:35.961Z,15.40
2023-05-09T11:09:22.368Z,15.60
2023-05-09T11:11:53.104Z,15.60
2023-05-09T11:14:53.848Z,15.40
2023-05-09T11:17:38.800Z,15.40
2023-05-09T11:20:05.988Z,15.50
2023-05-09T11:22:43.319Z,15.40
2023-05-09T11:25:14.665Z,15.50
2023-05-09T11:27:44.412Z,15.50
2023-05-09T11:30:20.799Z,15.40
2023-05-09T11:32:50.467Z,15.50
2023-05-09T11:35:18.614Z,15.50
2023-05-09T11:37:49.689Z,15.50
2023-05-09T11:40:17.728Z,15.60
2023-05-09T11:42:45.971Z,15.80
2023-05-09T11:45:13.712Z,16.20
2023-05-09T11:47:41.174Z,16.50
2023-05-09T11:50:10.616Z,16.70
2023-05-09T11:52:41.582Z,16.80
2023-05-09T11:55:11.554Z,17.00
2023-05-09T11:57:40.605Z,16.90
2023-05-09T12:00:09.843Z,16.90
2023-05-09T12:02:37.422Z,17.00
2023-05-09T12:05:11.674Z,17.00
2023-05-09T12:07:39.627Z,16.80
2023-05-09T12:10:07.432Z,16.80
2023-05-09T12:12:35.335Z,16.70
2023-05-09T12:15:07.002Z,16.60
2023-05-09T12:17:34.479Z,16.40
2023-05-09T12:20:01.518Z,16.20
2023-05-09T12:22:30.249Z,16.00
2023-05-09T12:24:57.338Z,16.00
2023-05-09T12:27:26.501Z,15.90
2023-05-09T12:29:54.951Z,15.80
2023-05-09T12:32:21.965Z,15.70
2023-05-09T12:34:49.162Z,15.80
2023-05-09T12:37:17.419Z,15.90
2023-05-09T12:40:04.217Z,16.00
2023-05-09T12:42:31.781Z,16.00
2023-05-09T12:44:58.924Z,16.00
2023-05-09T12:47:29.535Z,16.10
2023-05-09T12:50:00.654Z,16.10
2023-05-09T12:52:50.683Z,16.10
2023-05-09T12:55:25.751Z,16.00
2023-05-09T12:57:59.506Z,15.90
2023-05-09T13:00:26.361Z,15.80
2023-05-09T13:02:53.410Z,15.70
2023-05-09T13:05:21.060Z,15.60
2023-05-09T13:07:48.982Z,15.50
2023-05-09T13:10:21.548Z,15.40
2023-05-09T13:12:49.340Z,15.40
2023-05-09T13:15:17.107Z,15.20
2023-05-09T13:17:44.226Z,15.20
2023-05-09T13:20:11.074Z,15.20
2023-05-09T13:22:38.049Z,15.20
2023-05-09T13:25:05.182Z,15.20
2023-05-09T13:27:32.787Z,15.10
2023-05-09T13:29:59.784Z,15.10
2023-05-09T13:32:26.843Z,15.10
2023-05-09T13:34:53.674Z,15.10
2023-05-09T13:37:21.677Z,15.10
2023-05-09T13:39:48.888Z,15.10
2023-05-09T13:42:18.427Z,15.00
2023-05-09T13:44:46.225Z,14.90
2023-05-09T13:47:12.969Z,14.90
2023-05-09T13:49:39.760Z,14.90
2023-05-09T13:52:06.843Z,14.90
2023-05-09T13:54:35.447Z,14.80
2023-05-09T13:57:03.520Z,14.80
2023-05-09T13:59:31.000Z,14.80
2023-05-09T14:01:59.698Z,14.70
2023-05-09T14:04:27.129Z,14.70
2023-05-09T14:06:54.842Z,14.70
2023-05-09T14:09:22.283Z,14.80
2023-05-09T14:11:51.592Z,14.70
2023-05-09T14:14:22.138Z,14.60
2023-05-09T14:16:49.175Z,14.60
2023-05-09T14:19:16.435Z,14.60
2023-05-09T14:21:44.075Z,14.60
2023-05-09T14:24:13.650Z,14.50
2023-05-09T14:26:42.872Z,14.50
2023-05-09T14:29:09.680Z,14.40
2023-05-09T14:31:37.014Z,14.30
2023-05-09T14:34:05.288Z,14.10
2023-05-09T14:36:32.546Z,14.00
2023-05-09T14:38:59.237Z,13.90
2023-05-09T14:41:26.149Z,13.90
2023-05-09T14:43:52.959Z,13.80
2023-05-09T14:46:20.039Z,13.80
2023-05-09T14:48:46.967Z,13.80
2023-05-09T14:51:14.385Z,13.70
2023-05-09T14:53:43.105Z,13.70
2023-05-09T14:56:11.500Z,13.60
2023-05-09T14:58:38.464Z,13.50
2023-05-09T15:01:05.482Z,13.50
2023-05-09T15:03:32.690Z,13.40
2023-05-09T15:05:59.641Z,13.40
2023-05-09T15:08:26.888Z,13.30
2023-05-09T15:10:53.920Z,13.20
2023-05-09T15:13:21.119Z,13.20
2023-05-09T15:15:47.983Z,13.20
2023-05-09T15:18:16.600Z,13.20
2023-05-09T15:20:43.496Z,13.10
2023-05-09T15:23:10.945Z,13.10
2023-05-09T15:25:37.912Z,12.90
2023-05-09T15:28:04.724Z,12.90
2023-05-09T15:30:31.569Z,12.90
2023-05-09T15:32:59.274Z,12.80
2023-05-09T15:35:26.877Z,12.80
2023-05-09T15:37:53.689Z,12.70
2023-05-09T15:40:20.499Z,12.80
2023-05-09T15:42:48.348Z,12.70
2023-05-09T15:45:15.790Z,12.80
2023-05-09T15:47:42.838Z,12.90
2023-05-09T15:50:10.077Z,12.90
2023-05-09T15:52:37.321Z,13.10
2023-05-09T15:55:04.805Z,13.20
2023-05-09T15:57:32.222Z,13.40
2023-05-09T15:59:59.009Z,13.50
2023-05-09T16:02:29.055Z,13.60
2023-05-09T16:04:56.108Z,13.70
2023-05-09T16:07:23.520Z,13.70
2023-05-09T16:09:50.427Z,13.90
2023-05-09T16:12:17.386Z,14.10
2023-05-09T16:14:44.118Z,14.20
2023-05-09T16:17:10.812Z,14.20
2023-05-09T16:19:37.578Z,14.30
2023-05-09T16:22:04.448Z,14.40
2023-05-09T16:24:31.920Z,14.40
2023-05-09T16:26:58.804Z,14.50
2023-05-09T16:29:28.506Z,14.40
2023-05-09T16:31:55.469Z,14.40
2023-05-09T16:34:22.664Z,14.50
2023-05-09T16:36:49.811Z,14.70
2023-05-09T16:39:16.648Z,14.70
2023-05-09T16:41:43.537Z,14.80
2023-05-09T16:44:10.764Z,14.90
2023-05-09T16:46:37.802Z,15.10
2023-05-09T16:49:04.843Z,15.20
2023-05-09T16:51:31.854Z,15.30
2023-05-09T16:53:59.317Z,15.40
2023-05-09T16:56:26.735Z,15.30
2023-05-09T16:58:53.780Z,15.30
2023-05-09T17:01:20.580Z,15.30
2023-05-09T17:03:48.128Z,15.40
2023-05-09T17:06:15.030Z,15.50
2023-05-09T17:08:42.599Z,15.40
2023-05-09T17:11:09.675Z,15.40
2023-05-09T17:13:36.538Z,15.30
2023-05-09T17:16:03.734Z,15.20
2023-05-09T17:18:37.542Z,15.10
2023-05-09T17:21:05.279Z,15.00
2023-05-09T17:23:32.544Z,15.00
2023-05-09T17:25:59.374Z,14.90
2023-05-09T17:28:26.994Z,14.80
2023-05-09T17:30:54.070Z,14.70
2023-05-09T17:33:20.988Z,14.60
2023-05-09T17:35:49.679Z,14.60
2023-05-09T17:38:16.836Z,14.50
2023-05-09T17:40:44.318Z,14.40
2023-05-09T17:43:11.202Z,14.40
2023-05-09T17:45:38.104Z,14.30
2023-05-09T17:48:04.999Z,14.20
2023-05-09T17:50:33.003Z,14.20
2023-05-09T17:52:59.764Z,14.20
2023-05-09T17:55:26.519Z,14.10
2023-05-09T17:57:53.486Z,14.10
2023-05-09T18:00:20.315Z,14.00
2023-05-09T18:02:48.341Z,14.00
2023-05-09T18:05:15.476Z,14.00
2023-05-09T18:07:42.336Z,13.90
2023-05-09T18:10:09.407Z,13.90
2023-05-09T18:12:37.416Z,13.90
2023-05-09T18:15:04.989Z,13.80
2023-05-09T18:17:31.943Z,13.80
2023-05-09T18:19:58.920Z,13.70
2023-05-09T18:22:26.077Z,13.60
2023-05-09T18:24:53.016Z,13.50
2023-05-09T18:27:19.863Z,13.50
2023-05-09T18:29:47.549Z,13.40
2023-05-09T18:32:14.530Z,13.40
2023-05-09T18:34:41.607Z,13.30
2023-05-09T18:37:09.443Z,13.30
2023-05-09T18:39:36.617Z,13.20
2023-05-09T18:42:03.555Z,13.10
2023-05-09T18:44:30.436Z,13.00
2023-05-09T18:46:58.021Z,12.90
2023-05-09T18:49:27.888Z,12.90
2023-05-09T18:51:56.479Z,12.80
2023-05-09T18:54:23.499Z,12.80
2023-05-09T18:56:50.397Z,12.80
2023-05-09T18:59:17.920Z,12.70
2023-05-09T19:01:44.658Z,12.70
2023-05-09T19:04:14.131Z,12.60
2023-05-09T19:06:42.361Z,12.50
2023-05-09T19:09:09.210Z,12.50
2023-05-09T19:11:36.173Z,12.50
2023-05-09T19:14:03.520Z,12.40
2023-05-09T19:16:30.441Z,12.40
2023-05-09T19:18:57.855Z,12.40
2023-05-09T19:21:25.581Z,12.30
2023-05-09T19:23:52.482Z,12.20
2023-05-09T19:26:20.635Z,12.10
2023-05-09T19:28:48.600Z,12.00
2023-05-09T19:31:16.425Z,12.00
2023-05-09T19:35:06.818Z,11.90
2023-05-09T19:37:33.555Z,11.90
2023-05-09T19:40:00.660Z,11.80
2023-05-09T19:43:42.981Z,11.80
2023-05-09T19:46:09.835Z,11.70
2023-05-09T19:48:36.758Z,11.70
2023-05-09T19:51:04.107Z,11.70
2023-05-09T19:53:30.922Z,11.60
2023-05-09T19:55:57.902Z,11.50
2023-05-09T19:58:25.880Z,11.50
2023-05-09T20:00:52.697Z,11.50
2023-05-09T20:03:19.574Z,11.50
2023-05-09T20:05:55.703Z,11.40
2023-05-09T20:08:22.542Z,11.40
2023-05-09T20:10:49.324Z,11.40
2023-05-09T20:13:16.191Z,11.40
2023-05-09T20:15:43.076Z,11.30
2023-05-09T20:18:10.305Z,11.30
2023-05-09T20:20:37.329Z,11.30
2023-05-09T20:23:04.111Z,11.20
2023-05-09T20:26:46.701Z,11.20
2023-05-09T20:29:13.669Z,11.20
2023-05-09T20:31:41.630Z,11.10
2023-05-09T20:34:12.336Z,11.10
2023-05-09T20:36:39.206Z,11.10
2023-05-09T20:39:06.120Z,11.10
2023-05-09T20:41:35.356Z,11.00
2023-05-09T20:44:04.547Z,11.00
2023-05-09T20:46:31.462Z,11.00
2023-05-09T20:48:58.253Z,11.00
2023-05-09T20:51:25.321Z,11.00
2023-05-09T20:53:52.167Z,10.90
2023-05-09T20:56:19.592Z,10.80
2023-05-09T20:58:46.558Z,10.80
2023-05-09T21:01:13.656Z,10.70
2023-05-09T21:03:40.725Z,10.70
2023-05-09T21:06:08.102Z,10.70
2023-05-09T21:08:35.048Z,10.70
2023-05-09T21:11:02.213Z,10.70
2023-05-09T21:13:29.377Z,10.60
2023-05-09T21:15:56.211Z,10.60
2023-05-09T21:18:23.516Z,10.50
2023-05-09T21:20:50.793Z,10.50
2023-05-09T21:23:18.766Z,10.50
2023-05-09T21:25:45.746Z,10.40
2023-05-09T21:28:15.000Z,10.30
2023-05-09T21:30:41.950Z,10.30
2023-05-09T21:33:08.973Z,10.30
2023-05-09T21:35:36.153Z,10.20
2023-05-09T21:38:03.672Z,10.20
2023-05-09T21:40:31.578Z,10.20
2023-05-09T21:43:01.167Z,10.20
2023-05-09T21:45:28.166Z,10.20
2023-05-09T21:47:55.202Z,10.10
2023-05-09T21:50:22.286Z,10.10
2023-05-09T21:52:49.207Z,10.10
2023-05-09T21:55:16.219Z,10.20
2023-05-09T21:57:43.056Z,10.10
2023-05-09T22:00:17.036Z,10.20
2023-05-09T22:02:44.714Z,10.20
2023-05-09T22:05:12.712Z,10.20
2023-05-09T22:07:39.640Z,10.20
2023-05-09T22:10:07.182Z,10.20
2023-05-09T22:12:34.310Z,10.10
2023-05-09T22:15:01.346Z,10.10
2023-05-09T22:17:28.430Z,10.10
2023-05-09T22:19:55.384Z,10.10
2023-05-09T22:22:23.448Z,10.10
2023-05-09T22:24:50.396Z,10.00
2023-05-09T22:27:17.694Z,10.00
2023-05-09T22:29:45.701Z,10.00
2023-05-09T22:32:12.678Z,10.10
2023-05-09T22:34:39.759Z,10.10
2023-05-09T22:37:07.047Z,10.20
2023-05-09T22:39:33.982Z,10.30
2023-05-09T22:42:02.562Z,10.30
2023-05-09T22:44:29.507Z,10.20
2023-05-09T22:46:57.093Z,10.10
2023-05-09T22:49:24.316Z,10.10
2023-05-09T22:51:51.164Z,10.00
2023-05-09T22:54:21.285Z,10.00
2023-05-09T22:56:48.241Z,10.00
2023-05-09T22:59:15.097Z,9.90
2023-05-09T23:01:42.443Z,9.90
2023-05-09T23:04:09.450Z,9.90
2023-05-09T23:06:36.442Z,9.90
2023-05-09T23:09:03.583Z,9.80
2023-05-09T23:11:30.544Z,9.80
2023-05-09T23:13:57.456Z,9.90
2023-05-09T23:16:24.308Z,10.00
2023-05-09T23:18:51.222Z,10.10
2023-05-09T23:21:18.363Z,10.00
2023-05-09T23:23:45.181Z,9.90
2023-05-09T23:26:12.126Z,9.90
2023-05-09T23:28:39.111Z,9.90
2023-05-09T23:31:05.975Z,9.90
2023-05-09T23:33:33.096Z,9.90
2023-05-09T23:36:00.492Z,9.80
2023-05-09T23:38:27.392Z,9.80
2023-05-09T23:40:56.198Z,9.80
2023-05-09T23:43:23.073Z,9.70
2023-05-09T23:45:50.060Z,9.70
2023-05-09T23:48:17.040Z,9.70
2023-05-09T23:50:43.976Z,9.70
2023-05-09T23:53:12.200Z,9.60
2023-05-09T23:55:39.203Z,9.60
2023-05-09T23:58:06.088Z,9.70
